Time;durP1;ratioP1;P1;durP2;ratioP2;P2;SDS_P1;SDS_P2;PMS_P1;PMS_P2;Temp;Humidity;BMP_temperature;BMP_pressure;BME280_temperature;BME280_humidity;BME280_pressure;Samples;Min_cycle;Max_cycle;Signal;HPM_P1;HPM_P2
2023/01/31 00:00:56;;;;;;;5.78;3.42;;;3.90;99.90;;;;;;5017306;28;20238;-71
2023/01/31 00:03:21;;;;;;;9.40;4.78;;;4.00;99.90;;;;;;5013927;28;20192;-71
2023/01/31 00:05:47;;;;;;;6.45;4.22;;;3.90;99.90;;;;;;5014561;28;20204;-71
2023/01/31 00:08:14;;;;;;;8.70;4.38;;;4.00;99.90;;;;;;5017281;28;20214;-71
2023/01/31 00:10:40;;;;;;;5.78;4.13;;;4.00;99.90;;;;;;5017042;28;20356;-71
2023/01/31 00:13:05;;;;;;;7.50;4.47;;;4.00;99.90;;;;;;5024271;28;20667;-71
2023/01/31 00:15:31;;;;;;;5.28;4.78;;;4.00;99.90;;;;;;5016250;28;20223;-71
2023/01/31 00:17:57;;;;;;;9.93;4.40;;;4.10;99.90;;;;;;5022505;28;20570;-71
2023/01/31 00:20:22;;;;;;;8.98;5.03;;;4.00;99.90;;;;;;5009761;28;20185;-71
2023/01/31 00:22:48;;;;;;;10.70;4.53;;;4.00;99.90;;;;;;5021617;28;20173;-71
2023/01/31 00:25:14;;;;;;;8.10;4.93;;;3.90;99.90;;;;;;5014733;28;20291;-71
2023/01/31 00:27:39;;;;;;;8.32;5.07;;;3.90;99.90;;;;;;5011959;28;20556;-71
2023/01/31 00:30:05;;;;;;;8.45;5.15;;;3.90;99.90;;;;;;5022877;28;20296;-72
2023/01/31 00:32:31;;;;;;;3.83;3.47;;;3.80;99.90;;;;;;5019113;28;20676;-71
2023/01/31 00:34:57;;;;;;;7.13;4.60;;;3.70;99.90;;;;;;5020869;28;20307;-71
2023/01/31 00:37:22;;;;;;;6.15;4.90;;;3.80;99.90;;;;;;5009459;28;20185;-71
2023/01/31 00:39:48;;;;;;;5.63;4.18;;;3.70;99.90;;;;;;5021446;28;20248;-71
2023/01/31 00:42:13;;;;;;;7.07;4.60;;;3.80;99.90;;;;;;5021532;28;20172;-71
2023/01/31 00:44:40;;;;;;;4.97;3.42;;;3.80;99.90;;;;;;5015441;28;20201;-71
2023/01/31 00:47:06;;;;;;;10.60;5.20;;;3.80;99.90;;;;;;5017780;28;20181;-71
2023/01/31 00:49:31;;;;;;;7.55;4.35;;;3.80;99.90;;;;;;5013890;28;20645;-71
2023/01/31 00:51:57;;;;;;;9.45;5.57;;;3.90;99.90;;;;;;5016722;28;20185;-72
2023/01/31 00:54:22;;;;;;;7.15;4.90;;;3.90;99.90;;;;;;5013421;28;20518;-72
2023/01/31 00:56:49;;;;;;;5.80;3.65;;;3.90;99.90;;;;;;5017433;28;20707;-72
2023/01/31 00:59:14;;;;;;;6.85;5.03;;;3.90;99.90;;;;;;5015461;28;20172;-72
2023/01/31 01:01:40;;;;;;;6.57;4.18;;;3.80;99.90;;;;;;5014935;28;20664;-71
2023/01/31 01:04:05;;;;;;;10.02;4.88;;;3.80;99.90;;;;;;5007704;28;20227;-71
2023/01/31 01:06:31;;;;;;;6.88;4.43;;;3.80;99.90;;;;;;5015219;28;20231;-72
2023/01/31 01:08:58;;;;;;;8.38;4.60;;;3.90;99.90;;;;;;5020764;28;20174;-71
2023/01/31 01:11:29;;;;;;;5.50;4.55;;;3.90;99.90;;;;;;5014915;28;20272;-72
2023/01/31 01:13:56;;;;;;;6.65;5.00;;;3.90;99.90;;;;;;5019463;28;20201;-71
2023/01/31 01:16:41;;;;;;;11.07;4.57;;;3.90;99.90;;;;;;5014509;28;20177;-71
2023/01/31 01:19:12;;;;;;;5.93;3.70;;;4.00;99.90;;;;;;5025454;28;20181;-71
2023/01/31 01:21:39;;;;;;;5.30;3.05;;;3.90;99.90;;;;;;5025490;28;20684;-71
2023/01/31 01:24:07;;;;;;;4.95;4.05;;;3.90;99.90;;;;;;5022264;28;20185;-71
2023/01/31 01:26:34;;;;;;;7.00;5.00;;;3.90;99.90;;;;;;5014379;28;20185;-72
2023/01/31 01:29:01;;;;;;;10.23;5.00;;;3.90;99.90;;;;;;5018981;28;20177;-71
2023/01/31 01:31:31;;;;;;;4.38;3.08;;;3.80;99.90;;;;;;5011740;28;20189;-72
2023/01/31 01:34:02;;;;;;;13.55;5.55;;;3.90;99.90;;;;;;5022841;28;20286;-71
2023/01/31 01:36:30;;;;;;;7.15;4.25;;;3.90;99.90;;;;;;5026963;28;20191;-71
2023/01/31 01:38:56;;;;;;;10.13;4.68;;;3.90;99.90;;;;;;5015641;28;20181;-71
2023/01/31 01:41:22;;;;;;;6.50;3.90;;;3.80;99.90;;;;;;5020118;28;20178;-71
2023/01/31 01:43:50;;;;;;;11.30;4.65;;;3.90;99.90;;;;;;5023741;28;20177;-71
2023/01/31 01:46:25;;;;;;;6.80;5.18;;;4.00;99.90;;;;;;5019795;28;20200;-71
2023/01/31 01:49:04;;;;;;;9.32;4.15;;;4.00;99.90;;;;;;5002690;28;20181;-71
2023/01/31 01:51:32;;;;;;;8.85;4.57;;;4.10;99.90;;;;;;5021164;28;20176;-71
2023/01/31 01:54:03;;;;;;;7.15;4.55;;;4.00;99.90;;;;;;5025061;28;20203;-71
2023/01/31 01:56:36;;;;;;;6.15;3.28;;;3.80;99.90;;;;;;5014156;28;20176;-71
2023/01/31 01:59:01;;;;;;;11.70;4.88;;;3.90;99.90;;;;;;5023258;28;20228;-71
2023/01/31 02:01:32;;;;;;;8.02;4.50;;;3.90;99.90;;;;;;5024226;28;20173;-72
2023/01/31 02:03:58;;;;;;;7.30;4.35;;;3.90;99.90;;;;;;5027275;28;20246;-72
2023/01/31 02:06:24;;;;;;;6.35;4.35;;;3.80;99.90;;;;;;5016070;28;20182;-71
2023/01/31 02:08:50;;;;;;;9.88;4.72;;;3.90;99.90;;;;;;5017748;28;20668;-72
2023/01/31 02:11:22;;;;;;;4.50;3.85;;;3.80;99.90;;;;;;5008676;28;20201;-72
2023/01/31 02:13:51;;;;;;;5.30;4.10;;;3.70;99.90;;;;;;5016345;28;20212;-72
2023/01/31 02:16:17;;;;;;;9.20;3.67;;;3.80;99.90;;;;;;5015590;28;20228;-72
2023/01/31 02:18:44;;;;;;;10.50;4.55;;;3.90;99.90;;;;;;5020429;28;20168;-72
2023/01/31 02:22:05;;;;;;;11.85;4.72;;;3.90;99.90;;;;;;5016312;28;20509;-72
2023/01/31 02:24:43;;;;;;;8.85;4.18;;;3.90;99.90;;;;;;4990419;28;20246;-71
2023/01/31 02:27:42;;;;;;;6.50;4.00;;;4.00;99.90;;;;;;5021434;28;20184;-71
2023/01/31 02:30:19;;;;;;;5.45;3.72;;;3.90;99.90;;;;;;5015192;28;20190;-72
2023/01/31 02:33:02;;;;;;;6.13;4.05;;;3.80;99.90;;;;;;5011583;28;20200;-72
2023/01/31 02:35:52;;;;;;;3.90;3.15;;;3.80;99.90;;;;;;5015794;28;20307;-72
2023/01/31 02:39:07;;;;;;;5.07;3.90;;;3.90;99.90;;;;;;5017004;28;20168;-72
2023/01/31 02:42:11;;;;;;;7.07;3.95;;;3.70;99.90;;;;;;5001991;28;20611;-71
2023/01/31 02:45:00;;;;;;;4.38;2.85;;;3.70;99.90;;;;;;5022446;28;20213;-71
2023/01/31 02:47:29;;;;;;;8.95;4.07;;;3.70;99.90;;;;;;5014085;28;20173;-71
2023/01/31 02:50:12;;;;;;;4.93;4.43;;;3.70;99.90;;;;;;5014503;28;20244;-71
2023/01/31 02:52:49;;;;;;;5.85;4.10;;;3.80;99.90;;;;;;5014679;28;20169;-71
2023/01/31 02:58:08;;;;;;;5.50;3.85;;;3.70;99.90;;;;;;5018138;28;20196;-71
2023/01/31 03:00:37;;;;;;;6.90;4.28;;;3.70;99.90;;;;;;5019577;28;20186;-71
2023/01/31 03:03:06;;;;;;;8.20;4.30;;;3.70;99.90;;;;;;5012985;28;20173;-71
2023/01/31 03:05:32;;;;;;;9.55;3.95;;;3.60;99.90;;;;;;5013919;28;20205;-71
2023/01/31 03:08:01;;;;;;;9.00;4.35;;;3.70;99.90;;;;;;5018465;28;20216;-71
2023/01/31 03:10:27;;;;;;;7.32;3.90;;;3.70;99.90;;;;;;5005230;28;20182;-71
2023/01/31 03:13:30;;;;;;;4.93;3.97;;;3.70;99.90;;;;;;5020854;28;20668;-70
2023/01/31 03:19:31;;;;;;;4.93;3.97;;;3.80;99.90;;;;;;5020850;28;20177;-72
2023/01/31 03:22:09;;;;;;;7.72;4.30;;;3.90;99.90;;;;;;5019944;28;20188;-72
2023/01/31 03:24:35;;;;;;;8.93;3.80;;;3.70;99.90;;;;;;5010518;28;20204;-72
2023/01/31 03:27:02;;;;;;;4.05;3.20;;;3.60;99.90;;;;;;5023969;28;20648;-71
2023/01/31 03:29:33;;;;;;;4.82;3.55;;;3.60;99.90;;;;;;5006600;28;20185;-71
2023/01/31 03:32:12;;;;;;;10.35;3.78;;;3.70;99.90;;;;;;5012296;28;20185;-71
2023/01/31 03:34:38;;;;;;;6.07;3.97;;;3.80;99.90;;;;;;5016787;28;20208;-72
2023/01/31 03:37:23;;;;;;;5.55;4.20;;;3.70;99.90;;;;;;5019698;28;20177;-72
2023/01/31 03:40:09;;;;;;;7.45;3.72;;;3.70;99.90;;;;;;5018335;28;20195;-71
2023/01/31 03:42:41;;;;;;;5.82;4.28;;;3.80;99.90;;;;;;5009277;28;20187;-71
2023/01/31 03:45:37;;;;;;;7.32;5.00;;;3.70;99.90;;;;;;5013665;28;20207;-71
2023/01/31 03:48:09;;;;;;;7.35;3.95;;;3.60;99.90;;;;;;5012305;28;20558;-71
2023/01/31 03:50:41;;;;;;;6.88;4.30;;;3.60;99.90;;;;;;5014670;28;20212;-71
2023/01/31 03:53:31;;;;;;;9.98;4.57;;;3.60;99.90;;;;;;5012150;28;20172;-71
2023/01/31 03:56:15;;;;;;;5.93;4.47;;;3.70;99.90;;;;;;5019801;28;20201;-72
2023/01/31 03:58:46;;;;;;;6.18;3.83;;;3.60;99.90;;;;;;5010170;28;20185;-72
2023/01/31 04:01:14;;;;;;;7.18;4.38;;;3.50;99.90;;;;;;5019081;28;20659;-71
2023/01/31 04:03:56;;;;;;;5.55;4.00;;;3.60;99.90;;;;;;5013802;28;20662;-71
2023/01/31 04:06:21;;;;;;;3.95;3.33;;;3.60;99.90;;;;;;5021288;28;20628;-71
2023/01/31 04:08:47;;;;;;;5.30;3.55;;;3.50;99.90;;;;;;5021192;28;20418;-71
2023/01/31 04:11:14;;;;;;;8.77;4.28;;;3.60;99.90;;;;;;5021747;28;20511;-71
2023/01/31 04:13:41;;;;;;;9.82;4.55;;;3.60;99.90;;;;;;5020433;28;20193;-71
2023/01/31 04:16:07;;;;;;;6.88;4.57;;;3.60;99.90;;;;;;5021738;28;20203;-71
2023/01/31 04:18:32;;;;;;;6.35;4.28;;;3.50;99.90;;;;;;5011478;28;20571;-71
2023/01/31 04:20:58;;;;;;;6.10;3.20;;;3.60;99.90;;;;;;5021002;28;20173;-71
2023/01/31 04:23:25;;;;;;;4.72;3.25;;;3.50;99.90;;;;;;5024534;28;20314;-71
2023/01/31 04:25:52;;;;;;;7.03;4.18;;;3.50;99.90;;;;;;5019798;28;20741;-72
2023/01/31 04:28:18;;;;;;;7.25;4.68;;;3.50;99.90;;;;;;5017374;28;20185;-72
2023/01/31 04:30:43;;;;;;;7.70;5.43;;;3.50;99.90;;;;;;5017730;28;20181;-71
2023/01/31 04:33:09;;;;;;;7.15;3.47;;;3.40;99.90;;;;;;5019064;28;20209;-71
2023/01/31 04:35:34;;;;;;;6.15;3.92;;;3.40;99.90;;;;;;5018474;28;20627;-71
2023/01/31 04:38:00;;;;;;;5.15;3.80;;;3.50;99.90;;;;;;5012284;28;20192;-71
2023/01/31 04:40:26;;;;;;;5.53;3.40;;;3.50;99.90;;;;;;5013731;28;20189;-71
2023/01/31 04:42:51;;;;;;;6.97;4.97;;;3.40;99.90;;;;;;5016412;28;20177;-71
2023/01/31 04:45:17;;;;;;;3.88;3.50;;;3.40;99.90;;;;;;5016665;28;20206;-71
2023/01/31 04:47:43;;;;;;;9.20;3.90;;;3.40;99.90;;;;;;5015250;28;20173;-71
2023/01/31 04:50:09;;;;;;;5.82;3.63;;;3.30;99.90;;;;;;5021420;28;20617;-71
2023/01/31 04:52:35;;;;;;;5.60;3.67;;;3.30;99.90;;;;;;5013921;28;20220;-71
2023/01/31 04:55:01;;;;;;;6.32;3.80;;;3.30;99.90;;;;;;5012984;28;20214;-72
2023/01/31 04:57:27;;;;;;;9.65;3.47;;;3.40;99.90;;;;;;5015249;28;20551;-72
2023/01/31 04:59:52;;;;;;;8.57;3.63;;;3.40;99.90;;;;;;5017840;28;20265;-71
2023/01/31 05:02:18;;;;;;;10.38;3.78;;;3.50;99.90;;;;;;5013041;28;20251;-71
2023/01/31 05:04:43;;;;;;;8.02;4.07;;;3.50;99.90;;;;;;5010462;28;20261;-71
2023/01/31 05:07:09;;;;;;;5.55;2.75;;;3.50;99.90;;;;;;5015495;28;20435;-71
2023/01/31 05:09:34;;;;;;;5.05;3.83;;;3.50;99.90;;;;;;5015051;28;20197;-71
2023/01/31 05:12:00;;;;;;;5.15;3.75;;;3.50;99.90;;;;;;5010537;28;20244;-71
2023/01/31 05:14:26;;;;;;;5.82;3.70;;;3.50;99.90;;;;;;5015826;28;20295;-71
2023/01/31 05:16:51;;;;;;;9.65;4.35;;;3.50;99.90;;;;;;5015847;28;20645;-71
2023/01/31 05:19:17;;;;;;;8.82;4.68;;;3.60;99.90;;;;;;5020424;28;20176;-71
2023/01/31 05:21:57;;;;;;;5.00;3.72;;;3.50;99.90;;;;;;5021588;28;20179;-72
2023/01/31 05:24:24;;;;;;;6.60;4.25;;;3.60;99.90;;;;;;5018201;28;20565;-71
2023/01/31 05:26:51;;;;;;;6.28;4.25;;;3.50;99.90;;;;;;5020916;28;20182;-71
2023/01/31 05:29:18;;;;;;;7.72;4.55;;;3.50;99.90;;;;;;5015976;28;20188;-71
2023/01/31 05:31:44;;;;;;;5.25;3.17;;;3.50;99.90;;;;;;5016637;28;20197;-71
2023/01/31 05:34:13;;;;;;;7.53;3.97;;;3.50;99.90;;;;;;5004668;28;20699;-71
2023/01/31 05:36:40;;;;;;;8.63;3.75;;;3.60;99.90;;;;;;5012492;28;20181;-71
2023/01/31 05:39:06;;;;;;;9.57;4.40;;;3.50;99.90;;;;;;5003765;28;20227;-72
2023/01/31 05:41:31;;;;;;;11.32;4.43;;;3.50;99.90;;;;;;5009696;28;20205;-71
2023/01/31 05:43:57;;;;;;;6.72;3.88;;;3.50;99.90;;;;;;5015763;28;20193;-71
2023/01/31 05:46:22;;;;;;;6.20;3.78;;;3.60;99.90;;;;;;5012749;28;20179;-71
2023/01/31 05:48:49;;;;;;;9.25;4.07;;;3.60;99.90;;;;;;5008403;28;20724;-71
2023/01/31 05:51:14;;;;;;;8.88;3.83;;;3.60;99.90;;;;;;5003209;28;20220;-71
2023/01/31 05:53:40;;;;;;;3.72;2.70;;;3.70;99.90;;;;;;5008311;28;20263;-71
2023/01/31 05:56:06;;;;;;;6.63;3.88;;;3.60;99.90;;;;;;5018540;28;20211;-72
2023/01/31 05:58:31;;;;;;;8.30;3.28;;;3.60;99.90;;;;;;5015772;28;20181;-73
2023/01/31 06:00:57;;;;;;;8.75;3.90;;;3.70;99.90;;;;;;5018180;28;20177;-73
2023/01/31 06:03:22;;;;;;;4.88;3.72;;;3.70;99.90;;;;;;5014498;28;20267;-74
2023/01/31 06:05:48;;;;;;;4.65;3.58;;;3.70;99.90;;;;;;5009665;28;20204;-74
2023/01/31 06:08:13;;;;;;;5.63;4.70;;;3.60;99.90;;;;;;5018694;28;20655;-73
2023/01/31 06:10:39;;;;;;;8.40;4.82;;;3.70;99.90;;;;;;5013523;28;20201;-74
2023/01/31 06:13:06;;;;;;;9.82;4.38;;;3.50;99.90;;;;;;5005649;28;20224;-74
2023/01/31 06:15:32;;;;;;;5.85;3.80;;;3.60;99.90;;;;;;5006741;28;20304;-74
2023/01/31 06:17:58;;;;;;;4.97;3.65;;;3.60;99.90;;;;;;5004877;28;20263;-73
2023/01/31 06:20:25;;;;;;;5.65;3.47;;;3.60;99.90;;;;;;5015490;28;20566;-75
2023/01/31 06:22:50;;;;;;;3.33;2.70;;;3.70;99.90;;;;;;5015408;28;20602;-74
2023/01/31 06:25:16;;;;;;;8.07;3.85;;;3.70;99.90;;;;;;5011431;28;20205;-73
2023/01/31 06:27:42;;;;;;;6.63;4.78;;;3.70;99.90;;;;;;5001260;28;20263;-73
2023/01/31 06:30:09;;;;;;;7.18;4.57;;;3.80;99.90;;;;;;5014309;28;20216;-73
2023/01/31 06:32:35;;;;;;;7.03;4.72;;;3.70;99.90;;;;;;5009538;28;20213;-74
2023/01/31 06:35:01;;;;;;;6.55;4.13;;;3.70;99.90;;;;;;5008623;28;20249;-74
2023/01/31 06:37:27;;;;;;;7.10;4.20;;;3.60;99.90;;;;;;5018616;28;20268;-74
2023/01/31 06:39:52;;;;;;;6.03;3.92;;;3.60;99.90;;;;;;5011524;28;20716;-73
2023/01/31 06:42:18;;;;;;;5.50;4.07;;;3.60;99.90;;;;;;5016012;28;20179;-72
2023/01/31 06:44:44;;;;;;;7.90;5.25;;;3.70;99.90;;;;;;5024965;28;20200;-72
2023/01/31 06:47:11;;;;;;;10.13;4.22;;;3.60;99.90;;;;;;5021212;28;20176;-72
2023/01/31 06:49:37;;;;;;;4.93;3.95;;;3.60;99.90;;;;;;5019860;28;20181;-71
2023/01/31 06:52:03;;;;;;;7.53;4.53;;;3.60;99.90;;;;;;5016876;28;20189;-79
2023/01/31 06:54:28;;;;;;;8.00;4.57;;;3.70;99.90;;;;;;5016934;28;20225;-80
2023/01/31 06:56:54;;;;;;;4.85;4.32;;;3.60;99.90;;;;;;5022062;28;20194;-79
2023/01/31 06:59:20;;;;;;;7.20;4.70;;;3.60;99.90;;;;;;5021215;28;20215;-80
2023/01/31 07:01:45;;;;;;;6.85;4.82;;;3.50;99.90;;;;;;5020800;28;20180;-76
2023/01/31 07:04:11;;;;;;;4.07;3.55;;;3.60;99.90;;;;;;5016925;28;20668;-80
2023/01/31 07:06:36;;;;;;;6.68;4.30;;;3.70;99.90;;;;;;5015496;28;20185;-71
2023/01/31 07:09:02;;;;;;;11.95;5.15;;;3.90;99.90;;;;;;5011955;28;20192;-71
2023/01/31 07:11:28;;;;;;;9.13;4.95;;;3.90;99.90;;;;;;5008408;28;20193;-71
2023/01/31 07:13:53;;;;;;;7.22;4.00;;;3.80;99.90;;;;;;5011911;28;20233;-73
2023/01/31 07:16:21;;;;;;;7.68;4.65;;;3.90;99.90;;;;;;5008312;28;20712;-72
2023/01/31 07:18:46;;;;;;;10.65;4.57;;;3.90;99.90;;;;;;5005717;28;20174;-72
2023/01/31 07:21:12;;;;;;;10.20;5.35;;;3.80;99.90;;;;;;5008716;28;20185;-72
2023/01/31 07:23:38;;;;;;;4.60;3.25;;;3.70;99.90;;;;;;5004552;28;20213;-71
2023/01/31 07:26:04;;;;;;;6.22;4.20;;;3.80;99.90;;;;;;5017009;28;20201;-72
2023/01/31 07:28:30;;;;;;;8.68;4.65;;;3.90;99.90;;;;;;5017317;28;20185;-72
2023/01/31 07:31:03;;;;;;;6.75;3.60;;;3.80;99.90;;;;;;5017476;28;20181;-72
2023/01/31 07:33:29;;;;;;;6.07;4.05;;;3.80;99.90;;;;;;5009315;28;20173;-71
2023/01/31 07:35:54;;;;;;;6.47;4.40;;;3.90;99.90;;;;;;5010021;28;20240;-72
2023/01/31 07:38:21;;;;;;;11.82;4.20;;;4.10;99.90;;;;;;5006523;28;20262;-72
2023/01/31 07:40:46;;;;;;;5.45;4.35;;;4.00;99.90;;;;;;5014904;28;20212;-72
2023/01/31 07:43:12;;;;;;;11.07;4.80;;;4.00;99.90;;;;;;5018998;28;20175;-73
2023/01/31 07:45:41;;;;;;;7.10;4.25;;;4.00;99.90;;;;;;5012472;28;20206;-73
2023/01/31 07:48:07;;;;;;;5.05;4.05;;;4.10;99.90;;;;;;5011908;28;20177;-72
2023/01/31 07:50:32;;;;;;;5.57;3.30;;;4.20;99.90;;;;;;5011641;28;20183;-71
2023/01/31 07:52:58;;;;;;;8.73;5.20;;;4.30;99.90;;;;;;5016075;28;20189;-72
2023/01/31 07:55:25;;;;;;;7.35;4.07;;;4.50;99.90;;;;;;5010478;28;20232;-71
2023/01/31 07:57:50;;;;;;;8.00;4.60;;;4.40;99.90;;;;;;5018746;28;20223;-73
2023/01/31 08:05:45;;;;;;;6.55;3.97;;;4.70;99.90;;;;;;5012605;28;20251;-73
2023/01/31 08:08:12;;;;;;;7.35;4.03;;;4.70;99.90;;;;;;5012553;28;20195;-72
2023/01/31 08:10:37;;;;;;;7.35;4.70;;;4.60;99.90;;;;;;5017912;28;20579;-72
2023/01/31 08:13:05;;;;;;;7.30;3.90;;;4.80;99.90;;;;;;5016243;28;20192;-71
2023/01/31 08:15:31;;;;;;;7.25;3.53;;;4.80;99.90;;;;;;5008615;28;20205;-71
2023/01/31 08:17:56;;;;;;;8.30;4.10;;;4.90;99.90;;;;;;5016575;28;20231;-71
2023/01/31 08:20:22;;;;;;;5.65;3.47;;;4.90;99.90;;;;;;5014613;28;20189;-72
2023/01/31 08:22:47;;;;;;;7.93;3.95;;;5.00;99.90;;;;;;5019218;28;20209;-71
2023/01/31 08:25:13;;;;;;;5.65;3.42;;;4.90;99.90;;;;;;5013680;28;20690;-71
2023/01/31 08:27:39;;;;;;;5.22;3.50;;;4.70;99.90;;;;;;5020248;28;20264;-71
2023/01/31 08:30:05;;;;;;;8.23;4.25;;;4.70;99.90;;;;;;5015283;28;20181;-71
2023/01/31 08:32:30;;;;;;;8.68;4.00;;;4.50;99.90;;;;;;5020351;28;20666;-71
2023/01/31 08:34:56;;;;;;;2.78;2.03;;;4.40;99.90;;;;;;5007646;28;20248;-71
2023/01/31 08:37:21;;;;;;;7.80;4.20;;;4.40;99.90;;;;;;5024913;28;20671;-72
2023/01/31 08:39:47;;;;;;;5.57;3.50;;;4.50;99.90;;;;;;5017474;28;20560;-72
2023/01/31 08:42:13;;;;;;;7.57;4.32;;;4.70;99.90;;;;;;5020944;28;20188;-71
2023/01/31 08:44:38;;;;;;;8.80;3.67;;;5.00;99.90;;;;;;5013263;28;20743;-72
2023/01/31 08:47:04;;;;;;;2.83;2.63;;;5.30;99.90;;;;;;5023342;28;20181;-71
2023/01/31 08:49:30;;;;;;;9.57;2.67;;;5.70;99.90;;;;;;5021977;28;20184;-72
2023/01/31 08:51:55;;;;;;;6.15;3.67;;;6.20;99.90;;;;;;5020008;28;20188;-72
2023/01/31 08:54:21;;;;;;;5.95;3.38;;;6.50;99.90;;;;;;5022474;28;20217;-72
2023/01/31 08:56:46;;;;;;;5.28;3.42;;;6.60;99.90;;;;;;5024596;28;20804;-73
2023/01/31 08:59:12;;;;;;;4.50;3.15;;;6.60;99.90;;;;;;5019842;28;20196;-72
2023/01/31 09:01:40;;;;;;;5.40;3.13;;;6.40;99.90;;;;;;5016852;28;20184;-72
2023/01/31 09:04:05;;;;;;;6.65;3.03;;;6.20;99.90;;;;;;5013293;28;20891;-72
2023/01/31 09:06:31;;;;;;;6.70;3.38;;;6.00;99.90;;;;;;5026818;28;20275;-72
2023/01/31 09:08:57;;;;;;;6.28;3.13;;;5.80;99.90;;;;;;5007148;28;20182;-72
2023/01/31 09:11:25;;;;;;;5.75;4.43;;;5.80;99.90;;;;;;5002715;28;20612;-72
2023/01/31 09:13:51;;;;;;;3.85;2.80;;;5.70;99.90;;;;;;5000146;28;20186;-73
2023/01/31 09:16:18;;;;;;;3.65;2.90;;;5.60;99.90;;;;;;5009460;28;20183;-74
2023/01/31 09:18:43;;;;;;;5.40;2.45;;;5.60;99.90;;;;;;5016672;28;20228;-74
2023/01/31 09:21:20;;;;;;;5.40;3.13;;;5.60;99.90;;;;;;5016335;28;20659;-74
2023/01/31 09:23:47;;;;;;;6.60;3.50;;;5.60;99.90;;;;;;5013507;28;20185;-74
2023/01/31 09:26:14;;;;;;;4.65;2.30;;;5.50;99.90;;;;;;5018736;28;20201;-74
2023/01/31 09:28:44;;;;;;;7.82;3.50;;;5.50;99.90;;;;;;5021460;28;20204;-74
2023/01/31 09:31:12;;;;;;;5.75;3.35;;;5.40;99.90;;;;;;5015738;28;20212;-74
2023/01/31 09:33:38;;;;;;;6.07;2.85;;;5.50;99.90;;;;;;5024637;28;20260;-74
2023/01/31 09:36:09;;;;;;;5.53;3.95;;;5.50;99.90;;;;;;5015509;28;20348;-74
2023/01/31 09:38:35;;;;;;;3.97;2.72;;;5.50;99.90;;;;;;5019304;28;20172;-74
2023/01/31 09:41:13;;;;;;;4.72;3.25;;;5.70;99.90;;;;;;5016814;28;20255;-74
2023/01/31 09:43:43;;;;;;;5.03;3.45;;;5.90;99.90;;;;;;5016761;28;20188;-74
2023/01/31 09:46:16;;;;;;;3.58;2.90;;;6.10;99.90;;;;;;5015477;28;20201;-73
2023/01/31 09:48:46;;;;;;;6.78;4.13;;;6.20;99.90;;;;;;5006960;28;20181;-74
2023/01/31 09:51:13;;;;;;;2.90;2.70;;;6.20;99.90;;;;;;5018510;28;20189;-74
2023/01/31 09:53:42;;;;;;;11.77;3.80;;;6.20;99.90;;;;;;5016045;28;20177;-74
2023/01/31 09:56:08;;;;;;;7.88;3.53;;;6.10;99.90;;;;;;5006280;28;20560;-74
2023/01/31 09:58:46;;;;;;;6.63;2.92;;;6.10;99.90;;;;;;5022133;28;20188;-74
2023/01/31 10:01:30;;;;;;;5.57;3.03;;;6.20;99.90;;;;;;5020753;28;20180;-73
2023/01/31 10:04:05;;;;;;;4.57;2.88;;;6.00;99.90;;;;;;5013426;28;20177;-73
2023/01/31 10:06:40;;;;;;;4.28;2.90;;;5.90;99.90;;;;;;5022235;28;20264;-73
2023/01/31 10:09:31;;;;;;;7.53;4.00;;;5.80;99.90;;;;;;5018111;28;20180;-72
2023/01/31 10:12:04;;;;;;;5.22;3.30;;;5.80;99.90;;;;;;5017314;28;20181;-73
2023/01/31 10:14:42;;;;;;;3.35;2.80;;;5.90;99.90;;;;;;5018418;28;20287;-72
2023/01/31 10:17:21;;;;;;;4.28;3.47;;;5.90;99.90;;;;;;5017252;28;20171;-73
2023/01/31 10:19:52;;;;;;;10.52;3.72;;;5.90;99.90;;;;;;5018749;28;20226;-73
2023/01/31 10:22:30;;;;;;;6.50;3.83;;;5.90;99.90;;;;;;5013230;28;20557;-73
2023/01/31 10:25:15;;;;;;;5.05;3.42;;;6.00;99.90;;;;;;5024312;28;20208;-73
2023/01/31 10:27:57;;;;;;;3.85;2.67;;;6.10;99.90;;;;;;5009757;28;20185;-72
2023/01/31 10:30:31;;;;;;;3.53;2.58;;;6.20;99.90;;;;;;5014000;28;20188;-73
2023/01/31 10:33:03;;;;;;;4.57;3.58;;;6.30;99.90;;;;;;5019023;28;20197;-73
2023/01/31 10:35:38;;;;;;;5.60;2.95;;;6.30;99.90;;;;;;5005750;28;20215;-73
2023/01/31 10:38:12;;;;;;;8.98;3.83;;;6.20;99.90;;;;;;5018668;28;20181;-73
2023/01/31 10:40:43;;;;;;;6.25;3.92;;;6.10;99.90;;;;;;5010931;28;20172;-73
2023/01/31 10:43:17;;;;;;;5.32;3.50;;;5.90;99.90;;;;;;5020159;28;20825;-73
2023/01/31 10:45:43;;;;;;;6.45;2.83;;;5.90;99.90;;;;;;5013139;28;20208;-72
2023/01/31 10:48:20;;;;;;;5.95;3.25;;;5.90;99.90;;;;;;5009681;28;20747;-73
2023/01/31 10:50:54;;;;;;;5.93;2.63;;;5.90;99.90;;;;;;5014822;28;20299;-73
2023/01/31 10:53:32;;;;;;;6.07;3.28;;;5.80;99.90;;;;;;5018702;28;20235;-73
2023/01/31 10:56:20;;;;;;;3.33;2.80;;;6.00;99.90;;;;;;5013190;28;20217;-73
2023/01/31 10:58:46;;;;;;;6.07;2.80;;;6.10;99.90;;;;;;5020607;28;20183;-73
2023/01/31 11:01:13;;;;;;;4.88;2.95;;;6.40;99.90;;;;;;5017229;28;20586;-73
2023/01/31 11:03:46;;;;;;;6.97;3.30;;;6.50;99.90;;;;;;5011771;28;20201;-73
2023/01/31 11:06:12;;;;;;;7.97;2.60;;;6.60;99.90;;;;;;5019953;28;20618;-73
2023/01/31 11:08:52;;;;;;;4.90;2.30;;;6.70;99.90;;;;;;5014061;28;20263;-73
2023/01/31 11:11:20;;;;;;;8.20;3.60;;;6.60;99.90;;;;;;5015655;28;20183;-73
2023/01/31 11:14:15;;;;;;;9.02;3.88;;;6.70;99.90;;;;;;5014379;28;20197;-73
2023/01/31 11:16:41;;;;;;;9.13;3.53;;;6.70;99.90;;;;;;5011587;28;20663;-75
2023/01/31 11:19:38;;;;;;;3.50;2.20;;;6.90;99.90;;;;;;5018532;28;20184;-72
2023/01/31 11:22:05;;;;;;;2.75;2.05;;;7.00;99.90;;;;;;5013820;28;20208;-73
2023/01/31 11:24:36;;;;;;;5.78;3.10;;;7.20;99.90;;;;;;5019714;28;20199;-73
2023/01/31 11:27:09;;;;;;;4.72;3.47;;;7.10;99.90;;;;;;5010798;28;20620;-73
2023/01/31 11:29:42;;;;;;;5.32;2.72;;;7.10;99.90;;;;;;5014730;28;20200;-72
2023/01/31 11:32:19;;;;;;;5.18;3.00;;;7.10;99.90;;;;;;5015647;28;20196;-73
2023/01/31 11:34:58;;;;;;;4.18;2.60;;;7.20;99.90;;;;;;5013799;28;20231;-73
2023/01/31 11:37:24;;;;;;;5.35;2.78;;;7.30;99.90;;;;;;5013849;28;20246;-72
2023/01/31 11:40:21;;;;;;;5.20;2.80;;;7.30;99.90;;;;;;5014945;28;20190;-73
2023/01/31 11:42:57;;;;;;;6.15;2.90;;;7.30;99.90;;;;;;5010802;28;20216;-73
2023/01/31 11:45:44;;;;;;;4.32;2.60;;;7.60;99.90;;;;;;5017279;28;20192;-73
2023/01/31 11:48:23;;;;;;;5.75;2.35;;;8.00;99.90;;;;;;5011678;28;20180;-73
2023/01/31 11:50:56;;;;;;;6.53;2.65;;;7.90;99.90;;;;;;5017674;28;20184;-75
2023/01/31 11:53:24;;;;;;;4.63;2.10;;;7.70;99.90;;;;;;5011881;28;20195;-72
2023/01/31 11:55:53;;;;;;;3.05;2.17;;;7.50;99.90;;;;;;5020702;28;20216;-76
2023/01/31 11:58:22;;;;;;;3.22;2.03;;;7.40;99.90;;;;;;5010743;28;20196;-75
2023/01/31 12:00:58;;;;;;;4.40;3.15;;;7.30;99.90;;;;;;5017293;28;20196;-75
2023/01/31 12:03:24;;;;;;;11.57;2.35;;;7.10;99.90;;;;;;5009909;28;20177;-74
2023/01/31 12:05:58;;;;;;;5.15;2.85;;;7.10;99.90;;;;;;5009555;28;20755;-74
2023/01/31 12:08:40;;;;;;;6.07;2.28;;;7.00;99.90;;;;;;5015984;28;20189;-74
2023/01/31 12:11:18;;;;;;;8.13;2.63;;;7.10;99.90;;;;;;5020431;28;20287;-73
2023/01/31 12:13:52;;;;;;;4.45;1.90;;;7.20;99.90;;;;;;5013949;28;20193;-74
2023/01/31 12:16:24;;;;;;;7.70;2.63;;;7.30;99.90;;;;;;5014064;28;20655;-73
2023/01/31 12:19:12;;;;;;;7.05;2.90;;;7.60;99.90;;;;;;5019811;28;20189;-74
2023/01/31 12:21:41;;;;;;;5.68;2.55;;;7.70;99.90;;;;;;5012527;28;20176;-74
2023/01/31 12:24:06;;;;;;;6.85;2.47;;;7.70;99.90;;;;;;5020932;28;20231;-75
2023/01/31 12:26:53;;;;;;;7.90;2.45;;;7.70;99.90;;;;;;5014898;28;20177;-74
2023/01/31 12:29:57;;;;;;;6.40;2.22;;;7.50;99.90;;;;;;5013573;28;20184;-74
2023/01/31 12:32:50;;;;;;;5.45;2.15;;;7.20;99.90;;;;;;5017846;28;20196;-74
2023/01/31 12:35:42;;;;;;;7.78;2.38;;;6.90;99.90;;;;;;5007434;28;20236;-74
2023/01/31 12:38:41;;;;;;;4.72;2.63;;;6.60;99.90;;;;;;5014157;28;20383;-74
2023/01/31 12:41:29;;;;;;;6.22;2.85;;;6.50;99.90;;;;;;5015911;28;20707;-76
2023/01/31 12:44:42;;;;;;;4.65;2.70;;;6.40;99.90;;;;;;5009695;28;20191;-74
2023/01/31 12:47:29;;;;;;;4.25;2.67;;;6.30;99.90;;;;;;4989544;28;20184;-74
2023/01/31 12:50:19;;;;;;;4.22;2.33;;;6.40;99.90;;;;;;5019978;28;20197;-75
2023/01/31 12:53:13;;;;;;;2.58;1.42;;;6.50;99.90;;;;;;5013144;28;20833;-74
2023/01/31 12:56:10;;;;;;;5.47;2.35;;;6.70;99.90;;;;;;5017081;28;20637;-74
2023/01/31 12:58:55;;;;;;;6.07;2.75;;;6.80;99.90;;;;;;5014153;28;20181;-74
2023/01/31 13:01:35;;;;;;;4.13;2.22;;;6.60;99.90;;;;;;5012469;28;20176;-74
2023/01/31 13:04:13;;;;;;;3.33;2.42;;;6.70;99.90;;;;;;5019767;28;20264;-74
2023/01/31 13:06:52;;;;;;;5.18;2.70;;;6.70;99.90;;;;;;5025715;28;20172;-74
2023/01/31 13:09:25;;;;;;;8.98;2.28;;;6.60;99.90;;;;;;5021048;28;20188;-74
2023/01/31 13:11:56;;;;;;;3.72;1.98;;;6.60;99.90;;;;;;5021192;28;20202;-74
2023/01/31 13:14:26;;;;;;;2.80;1.98;;;6.60;99.90;;;;;;5015704;28;20217;-74
2023/01/31 13:16:56;;;;;;;4.80;2.75;;;6.50;99.90;;;;;;5012281;28;20178;-75
2023/01/31 13:19:45;;;;;;;4.72;1.75;;;6.50;99.90;;;;;;5022077;28;20275;-75
2023/01/31 13:22:17;;;;;;;8.85;3.80;;;6.50;99.90;;;;;;5018620;28;20176;-75
2023/01/31 13:24:47;;;;;;;5.95;2.92;;;6.50;99.90;;;;;;5020658;28;21571;-74
2023/01/31 13:27:18;;;;;;;8.35;2.28;;;6.50;99.90;;;;;;5008886;28;20190;-73